Bhera Weather



Bhera's Current Weather

Temprature 17.6o clear sky

clear sky

Rain: 0 %

Min Temprature17.6o
Max Temprature17.6o
Humidity28
Wind Speed1.73 m/h
Sun Rise06:22:18
Sun Set17:21:46
Current Time: 28-Oct-2020 06:48:09
Lat/Lon: 32.48, 72.91




Bhera's Geo Location



Bhera's Weather Forecast

Time Overall Temp Min Temp Max Temp Humidity Wind Speed Rain
28-Oct-2020 (Wed)
08:00:00 clear sky 18.780 18.780 21.220 26 1.34 m/h 0 %
11:00:00 clear sky 26.100 26.100 28.760 18 1.35 m/h 0 %
14:00:00 clear sky 30.980 30.980 31.970 13 0.77 m/h 0 %
17:00:00 clear sky 27.010 27.010 27.100 16 2.2 m/h 0 %
20:00:00 clear sky 22.920 22.920 22.920 20 2.39 m/h 0 %
23:00:00 clear sky 20.880 20.880 20.880 23 2.28 m/h 0 %
29-Oct-2020 (Thu)
02:00:00 clear sky 18.810 18.810 18.810 26 2.69 m/h 0 %
05:00:00 clear sky 17.480 17.480 17.480 28 2.61 m/h 0 %
08:00:00 clear sky 20.290 20.290 20.290 24 2.41 m/h 0 %
11:00:00 clear sky 27.780 27.780 27.780 15 3.38 m/h 0 %
14:00:00 clear sky 30.960 30.960 30.960 13 2.34 m/h 0 %
17:00:00 clear sky 26.510 26.510 26.510 17 1.95 m/h 0 %
20:00:00 clear sky 23.110 23.110 23.110 20 2.73 m/h 0 %
23:00:00 clear sky 21.470 21.470 21.470 22 2.52 m/h 0 %
30-Oct-2020 (Fri)
02:00:00 clear sky 19.500 19.500 19.500 25 1.4 m/h 0 %
05:00:00 clear sky 18.240 18.240 18.240 28 1.42 m/h 0 %
08:00:00 clear sky 21.920 21.920 21.920 23 0.77 m/h 0 %
11:00:00 clear sky 30.440 30.440 30.440 13 2.12 m/h 0 %
14:00:00 clear sky 32.420 32.420 32.420 11 3.19 m/h 0 %
17:00:00 clear sky 27.010 27.010 27.010 15 3.24 m/h 0 %
20:00:00 clear sky 22.420 22.420 22.420 19 3.54 m/h 0 %
23:00:00 clear sky 20.630 20.630 20.630 20 2.76 m/h 0 %
31-Oct-2020 (Sat)
02:00:00 clear sky 19.200 19.200 19.200 22 2.44 m/h 0 %
05:00:00 clear sky 18.080 18.080 18.080 24 1.9 m/h 0 %
08:00:00 clear sky 22.000 22.000 22.000 20 0.1 m/h 0 %
11:00:00 clear sky 31.420 31.420 31.420 11 4.17 m/h 0 %
14:00:00 clear sky 32.520 32.520 32.520 10 5.74 m/h 0 %
17:00:00 clear sky 26.380 26.380 26.380 15 3.57 m/h 0 %
20:00:00 clear sky 21.900 21.900 21.900 18 3.22 m/h 0 %
23:00:00 clear sky 19.680 19.680 19.680 19 2.04 m/h 0 %
01-Nov-2020 (Sun)
02:00:00 clear sky 18.380 18.380 18.380 21 1.55 m/h 0 %
05:00:00 clear sky 17.320 17.320 17.320 22 1.19 m/h 0 %
08:00:00 clear sky 21.460 21.460 21.460 19 1.18 m/h 0 %
11:00:00 clear sky 29.770 29.770 29.770 12 1.69 m/h 0 %
14:00:00 clear sky 32.350 32.350 32.350 10 4.76 m/h 0 %
17:00:00 clear sky 26.710 26.710 26.710 15 3.21 m/h 0 %
20:00:00 clear sky 22.250 22.250 22.250 17 2.22 m/h 0 %
23:00:00 clear sky 20.010 20.010 20.010 20 1.21 m/h 0 %
02-Nov-2020 (Mon)
02:00:00 clear sky 18.700 18.700 18.700 21 0.61 m/h 0 %
05:00:00 clear sky 17.060 17.060 17.060 23 0.74 m/h 0 %


Bhera's Tourist Spots

Historical Places in Bhera

Famous Cities (60)